Time;durP1;ratioP1;P1;durP2;ratioP2;P2;SDS_P1;SDS_P2;PMS_P1;PMS_P2;Temp;Humidity;BMP_temperature;BMP_pressure;BME280_temperature;BME280_humidity;BME280_pressure;Samples;Min_cycle;Max_cycle;Signal;HPM_P1;HPM_P2
2022/11/25 00:01:39;;;;;;;11.83;7.17;;;3.90;99.90;;;;;;4145513;28;20061;-67
2022/11/25 00:03:41;;;;;;;14.10;8.47;;;3.90;99.90;;;;;;4144834;28;20283;-70
2022/11/25 00:05:42;;;;;;;12.63;7.60;;;4.00;99.90;;;;;;4144550;28;20271;-65
2022/11/25 00:07:43;;;;;;;12.67;7.50;;;4.00;99.90;;;;;;4145355;28;20306;-69
2022/11/25 00:09:44;;;;;;;15.07;8.80;;;4.10;99.90;;;;;;4146643;28;20329;-63
2022/11/25 00:11:46;;;;;;;17.33;10.17;;;4.10;99.90;;;;;;4145409;28;20268;-67
2022/11/25 00:13:47;;;;;;;20.90;10.97;;;4.10;99.90;;;;;;4146585;28;20275;-62
2022/11/25 00:15:48;;;;;;;24.77;13.13;;;4.10;99.90;;;;;;4145497;28;20322;-68
2022/11/25 00:17:50;;;;;;;22.57;13.97;;;4.10;99.90;;;;;;4145877;28;20271;-63
2022/11/25 00:19:51;;;;;;;21.70;13.20;;;4.10;99.90;;;;;;4145250;28;20284;-67
2022/11/25 00:21:52;;;;;;;24.30;13.60;;;4.10;99.90;;;;;;4146363;28;20295;-67
2022/11/25 00:23:59;;;;;;;21.93;12.47;;;4.10;99.90;;;;;;4127295;28;20276;-69
2022/11/25 00:26:10;;;;;;;24.77;14.60;;;4.10;99.90;;;;;;4145730;28;20552;-69
2022/11/25 00:28:11;;;;;;;26.40;14.03;;;4.10;99.90;;;;;;4144769;28;20674;-66
2022/11/25 00:30:12;;;;;;;21.30;13.17;;;4.10;99.90;;;;;;4145914;28;20271;-70
2022/11/25 00:32:13;;;;;;;20.93;12.43;;;4.10;99.90;;;;;;4144726;28;20313;-68
2022/11/25 00:34:14;;;;;;;20.33;11.93;;;4.10;99.90;;;;;;4145926;28;20343;-73
2022/11/25 00:36:20;;;;;;;20.80;12.20;;;4.10;99.90;;;;;;4145572;28;20080;-72
2022/11/25 00:38:21;;;;;;;18.70;11.20;;;4.10;99.90;;;;;;4145753;28;20275;-65
2022/11/25 00:40:22;;;;;;;25.07;12.27;;;4.20;99.90;;;;;;4145679;28;20252;-64
2022/11/25 00:44:43;;;;;;;18.13;11.57;;;4.20;99.90;;;;;;4146019;28;20672;-68
2022/11/25 00:46:44;;;;;;;21.97;11.77;;;4.20;99.90;;;;;;4144485;28;20394;-69
2022/11/25 00:48:45;;;;;;;19.00;11.90;;;4.20;99.90;;;;;;4145605;28;20092;-62
2022/11/25 00:50:46;;;;;;;19.30;11.97;;;4.20;99.90;;;;;;4144206;28;20434;-67
2022/11/25 00:52:48;;;;;;;18.13;10.90;;;4.20;99.90;;;;;;4127791;28;20089;-62
2022/11/25 00:54:51;;;;;;;18.63;11.43;;;4.20;99.90;;;;;;4144131;28;20034;-68
2022/11/25 00:56:52;;;;;;;16.63;9.83;;;4.20;99.90;;;;;;4145791;28;20342;-63
2022/11/25 00:58:53;;;;;;;13.07;7.93;;;4.20;99.90;;;;;;4126927;28;20050;-62
2022/11/25 01:00:54;;;;;;;14.93;7.30;;;4.20;99.90;;;;;;4145450;28;20564;-64
2022/11/25 01:02:55;;;;;;;9.40;5.73;;;4.20;99.90;;;;;;4144275;28;20084;-66
2022/11/25 01:04:56;;;;;;;13.37;7.33;;;4.20;99.90;;;;;;4145938;28;20271;-63
2022/11/25 01:06:58;;;;;;;10.23;6.17;;;4.20;99.90;;;;;;4143947;28;20317;-67
2022/11/25 01:09:00;;;;;;;9.23;6.10;;;4.20;99.90;;;;;;4144786;28;20275;-62
2022/11/25 01:11:09;;;;;;;7.03;5.20;;;4.20;99.90;;;;;;4144203;28;20720;-70
2022/11/25 01:13:10;;;;;;;7.50;4.93;;;4.20;99.90;;;;;;4145392;28;20286;-69
2022/11/25 01:15:11;;;;;;;6.80;4.50;;;4.10;99.90;;;;;;4144673;28;20755;-66
2022/11/25 01:17:12;;;;;;;8.40;5.50;;;4.20;99.90;;;;;;4144504;28;20263;-71
2022/11/25 01:19:14;;;;;;;6.37;4.70;;;4.10;99.90;;;;;;4145399;28;20346;-72
2022/11/25 01:21:24;;;;;;;6.97;4.50;;;4.10;99.90;;;;;;4143667;28;20341;-69
2022/11/25 01:23:27;;;;;;;7.67;4.87;;;4.10;99.90;;;;;;4145373;28;20643;-66
2022/11/25 01:25:28;;;;;;;8.77;5.10;;;4.10;99.90;;;;;;4144174;28;20658;-70
2022/11/25 01:27:29;;;;;;;6.43;4.67;;;4.10;99.90;;;;;;4145280;28;20267;-66
2022/11/25 01:29:30;;;;;;;7.97;5.30;;;4.10;99.90;;;;;;4143562;28;20330;-69
2022/11/25 01:31:34;;;;;;;8.40;5.20;;;4.10;99.90;;;;;;4145019;28;20317;-66
2022/11/25 01:33:36;;;;;;;6.17;4.67;;;4.10;99.90;;;;;;4143169;28;20267;-69
2022/11/25 01:35:37;;;;;;;7.07;5.00;;;4.10;99.90;;;;;;4144699;28;20267;-68
2022/11/25 01:37:38;;;;;;;7.50;5.10;;;4.10;99.90;;;;;;4144056;28;20264;-69
2022/11/25 01:39:39;;;;;;;7.50;4.80;;;4.10;99.90;;;;;;4145030;28;20326;-70
2022/11/25 01:41:41;;;;;;;7.17;5.17;;;4.00;99.90;;;;;;4144342;28;20337;-62
2022/11/25 01:43:42;;;;;;;7.43;4.77;;;4.00;99.90;;;;;;4144930;28;20267;-64
2022/11/25 01:45:43;;;;;;;9.27;5.80;;;4.00;99.90;;;;;;4144044;28;20321;-67
2022/11/25 01:47:44;;;;;;;10.00;5.87;;;4.00;99.90;;;;;;4143543;28;20342;-73
2022/11/25 01:49:51;;;;;;;8.73;5.53;;;4.00;99.90;;;;;;4144893;28;20271;-64
2022/11/25 01:52:07;;;;;;;10.07;5.90;;;4.00;99.90;;;;;;4144391;28;20271;-65
2022/11/25 01:54:11;;;;;;;9.00;6.10;;;4.00;99.90;;;;;;4126926;28;20683;-67
2022/11/25 01:56:14;;;;;;;8.70;6.00;;;4.00;99.90;;;;;;4144020;28;20271;-63
2022/11/25 01:58:18;;;;;;;10.60;6.50;;;3.90;99.90;;;;;;4144918;28;20275;-63
2022/11/25 02:00:20;;;;;;;7.67;5.77;;;3.90;99.90;;;;;;4143844;28;20279;-63
2022/11/25 02:02:21;;;;;;;9.90;6.00;;;3.90;99.90;;;;;;4144101;28;20373;-63
2022/11/25 02:04:26;;;;;;;8.20;5.60;;;3.90;99.90;;;;;;4142924;28;20683;-64
2022/11/25 02:06:36;;;;;;;8.83;5.90;;;3.90;99.90;;;;;;4148031;28;20663;-63
2022/11/25 02:08:38;;;;;;;10.17;6.90;;;3.90;99.90;;;;;;4147286;28;20271;-63
2022/11/25 02:10:40;;;;;;;8.30;6.00;;;3.90;99.90;;;;;;4147275;28;20287;-62
2022/11/25 02:12:44;;;;;;;9.23;6.00;;;3.90;99.90;;;;;;4128782;28;20731;-64
2022/11/25 02:14:47;;;;;;;11.40;6.63;;;3.90;99.90;;;;;;4148631;28;20271;-69
2022/11/25 02:16:48;;;;;;;10.90;6.23;;;3.80;99.90;;;;;;4147067;28;20666;-62
2022/11/25 02:18:50;;;;;;;10.13;6.83;;;3.80;99.90;;;;;;4147925;28;20264;-66
2022/11/25 02:20:52;;;;;;;10.10;6.50;;;3.80;99.90;;;;;;4147166;28;20345;-63
2022/11/25 02:23:24;;;;;;;10.13;6.80;;;3.80;99.90;;;;;;4147403;28;20283;-61
2022/11/25 02:25:32;;;;;;;11.57;6.43;;;3.80;99.90;;;;;;4146780;28;20311;-67
2022/11/25 02:27:33;;;;;;;10.67;6.37;;;3.80;99.90;;;;;;4147802;28;20346;-65
2022/11/25 02:29:34;;;;;;;10.80;6.60;;;3.80;99.90;;;;;;4147388;28;20255;-64
2022/11/25 02:31:35;;;;;;;8.37;6.20;;;3.70;99.90;;;;;;4148375;28;20272;-70
2022/11/25 02:33:36;;;;;;;11.30;6.90;;;3.70;99.90;;;;;;4146193;28;20711;-64
2022/11/25 02:36:03;;;;;;;9.37;6.10;;;3.70;99.90;;;;;;4148166;28;20667;-64
2022/11/25 02:38:08;;;;;;;11.93;6.03;;;3.70;99.90;;;;;;4140032;28;20322;-65
2022/11/25 02:40:10;;;;;;;9.60;6.40;;;3.70;99.90;;;;;;4148044;28;20271;-67
2022/11/25 02:42:12;;;;;;;7.73;6.00;;;3.60;99.90;;;;;;4146775;28;20287;-63
2022/11/25 02:44:13;;;;;;;9.80;6.47;;;3.60;99.90;;;;;;4147275;28;20283;-65
2022/11/25 02:46:17;;;;;;;10.97;6.57;;;3.60;99.90;;;;;;4146340;28;20326;-65
2022/11/25 02:48:19;;;;;;;9.47;6.33;;;3.60;99.90;;;;;;4146940;28;20775;-62
2022/11/25 02:50:20;;;;;;;10.17;6.87;;;3.60;99.90;;;;;;4147387;28;20264;-62
2022/11/25 02:52:21;;;;;;;11.20;7.03;;;3.60;99.90;;;;;;4146417;28;20280;-66
2022/11/25 02:54:22;;;;;;;12.17;6.77;;;3.60;99.90;;;;;;4147074;28;20586;-67
2022/11/25 02:56:27;;;;;;;12.67;7.30;;;3.60;99.90;;;;;;4146642;28;20674;-61
2022/11/25 02:58:28;;;;;;;10.40;6.97;;;3.60;99.90;;;;;;4146963;28;20321;-67
2022/11/25 03:00:30;;;;;;;9.33;6.30;;;3.50;99.90;;;;;;4146176;28;20275;-69
2022/11/25 03:02:31;;;;;;;9.13;6.63;;;3.60;99.90;;;;;;4147489;28;20279;-71
2022/11/25 03:04:32;;;;;;;10.20;6.70;;;3.50;99.90;;;;;;4146086;28;20333;-65
2022/11/25 03:06:33;;;;;;;9.63;6.57;;;3.60;99.90;;;;;;4147678;28;20313;-64
2022/11/25 03:08:35;;;;;;;11.33;7.43;;;3.50;99.90;;;;;;4146151;28;20325;-67
2022/11/25 03:10:37;;;;;;;13.00;7.80;;;3.50;99.90;;;;;;4147181;28;20317;-67
2022/11/25 03:12:38;;;;;;;11.73;6.77;;;3.50;99.90;;;;;;4145800;28;20747;-66
2022/11/25 03:14:40;;;;;;;10.83;6.73;;;3.60;99.90;;;;;;4146529;28;20276;-69
2022/11/25 03:16:41;;;;;;;12.07;7.23;;;3.50;99.90;;;;;;4145775;28;20531;-72
2022/11/25 03:18:42;;;;;;;9.87;7.03;;;3.50;99.90;;;;;;4146631;28;20284;-71
2022/11/25 03:20:43;;;;;;;10.60;6.83;;;3.50;99.90;;;;;;4146361;28;20252;-69
2022/11/25 03:22:44;;;;;;;9.27;6.70;;;3.50;99.90;;;;;;4146413;28;20337;-69
2022/11/25 03:24:45;;;;;;;9.47;6.80;;;3.60;99.90;;;;;;4146931;28;20310;-69
2022/11/25 03:26:47;;;;;;;13.07;5.97;;;3.60;99.90;;;;;;4145279;28;20322;-70
2022/11/25 03:28:48;;;;;;;9.50;5.90;;;3.50;99.90;;;;;;4146726;28;20294;-65
2022/11/25 03:30:49;;;;;;;9.80;6.00;;;3.50;99.90;;;;;;4145968;28;20267;-68
2022/11/25 03:32:50;;;;;;;8.00;5.67;;;3.50;99.90;;;;;;4146957;28;20603;-63
2022/11/25 03:34:51;;;;;;;8.93;5.70;;;3.50;99.90;;;;;;4145265;28;21039;-64
2022/11/25 03:36:52;;;;;;;8.87;6.13;;;3.50;99.90;;;;;;4129736;28;20264;-68
2022/11/25 03:38:53;;;;;;;10.43;6.70;;;3.60;99.90;;;;;;4145096;28;20353;-69
2022/11/25 03:40:55;;;;;;;8.60;5.53;;;3.60;99.90;;;;;;4146432;28;20279;-66
2022/11/25 03:42:56;;;;;;;10.33;6.37;;;3.60;99.90;;;;;;4145815;28;20263;-68
2022/11/25 03:44:57;;;;;;;10.33;6.17;;;3.50;99.90;;;;;;4147064;28;20302;-63
2022/11/25 03:46:58;;;;;;;9.60;6.17;;;3.50;99.90;;;;;;4145171;28;20280;-72
2022/11/25 03:48:59;;;;;;;9.57;6.13;;;3.50;99.90;;;;;;4146798;28;20318;-68
2022/11/25 03:51:00;;;;;;;12.60;5.83;;;3.50;99.90;;;;;;4145786;28;20263;-64
2022/11/25 03:53:01;;;;;;;9.87;6.17;;;3.50;99.90;;;;;;4146322;28;20322;-69
2022/11/25 03:55:04;;;;;;;9.33;6.17;;;3.50;99.90;;;;;;4146331;28;20314;-63
2022/11/25 03:57:06;;;;;;;10.77;5.83;;;3.50;99.90;;;;;;4145533;28;20651;-71
2022/11/25 03:59:07;;;;;;;9.40;6.10;;;3.50;99.90;;;;;;4146582;28;20275;-72
2022/11/25 04:01:08;;;;;;;12.30;6.30;;;3.50;99.90;;;;;;4145702;28;20326;-63
2022/11/25 04:03:09;;;;;;;7.97;5.50;;;3.50;99.90;;;;;;4147057;28;20815;-73
2022/11/25 04:05:10;;;;;;;10.03;5.77;;;3.50;99.90;;;;;;4145191;28;20264;-71
2022/11/25 04:07:11;;;;;;;10.17;6.03;;;3.50;99.90;;;;;;4145924;28;20279;-70
2022/11/25 04:09:13;;;;;;;8.23;5.30;;;3.50;99.90;;;;;;4127589;28;20260;-64
2022/11/25 04:11:14;;;;;;;9.90;5.90;;;3.40;99.90;;;;;;4146408;28;20264;-66
2022/11/25 04:13:15;;;;;;;9.80;5.60;;;3.40;99.90;;;;;;4145042;28;20313;-64
2022/11/25 04:15:17;;;;;;;15.20;6.53;;;3.40;99.90;;;;;;4145403;28;20295;-63
2022/11/25 04:17:18;;;;;;;8.37;5.07;;;3.30;99.90;;;;;;4144229;28;20287;-64
2022/11/25 04:19:20;;;;;;;10.07;5.83;;;3.40;99.90;;;;;;4146008;28;20333;-66
2022/11/25 04:21:21;;;;;;;8.87;5.83;;;3.40;99.90;;;;;;4145695;28;21072;-64
2022/11/25 04:23:22;;;;;;;7.60;5.87;;;3.40;99.90;;;;;;4145645;28;20326;-71
2022/11/25 04:25:23;;;;;;;8.40;5.70;;;3.40;99.90;;;;;;4145531;28;20256;-71
2022/11/25 04:27:25;;;;;;;7.40;5.70;;;3.40;99.90;;;;;;4144404;28;20337;-66
2022/11/25 04:29:26;;;;;;;8.43;5.40;;;3.40;99.90;;;;;;4145426;28;20830;-65
2022/11/25 04:31:27;;;;;;;12.03;6.57;;;3.40;99.90;;;;;;4145026;28;20279;-64
2022/11/25 04:33:28;;;;;;;9.23;5.30;;;3.40;99.90;;;;;;4145950;28;20799;-65
2022/11/25 04:35:29;;;;;;;6.67;4.57;;;3.40;99.90;;;;;;4144698;28;20341;-64
2022/11/25 04:37:30;;;;;;;8.23;5.13;;;3.30;99.90;;;;;;4146025;28;20287;-70
2022/11/25 04:39:31;;;;;;;9.00;5.80;;;3.30;99.90;;;;;;4144344;28;20271;-68
2022/11/25 04:41:32;;;;;;;7.60;5.00;;;3.30;99.90;;;;;;4145750;28;20303;-65
2022/11/25 04:43:33;;;;;;;7.93;4.93;;;3.30;99.90;;;;;;4144509;28;20264;-63
2022/11/25 04:45:35;;;;;;;8.67;5.43;;;3.30;99.90;;;;;;4145508;28;20271;-64
2022/11/25 04:47:36;;;;;;;10.73;5.60;;;3.30;99.90;;;;;;4144093;28;20679;-63
2022/11/25 04:49:38;;;;;;;7.03;4.90;;;3.30;99.90;;;;;;4146042;28;20694;-64
2022/11/25 04:51:39;;;;;;;8.50;5.87;;;3.30;99.90;;;;;;4143260;28;20341;-63
2022/11/25 04:53:40;;;;;;;9.43;5.80;;;3.40;99.90;;;;;;4145186;28;20251;-64
2022/11/25 04:55:41;;;;;;;10.93;6.00;;;3.40;99.90;;;;;;4144915;28;20271;-63
2022/11/25 04:57:42;;;;;;;9.73;5.70;;;3.40;99.90;;;;;;4140408;28;20283;-63
2022/11/25 04:59:44;;;;;;;8.53;5.63;;;3.40;99.90;;;;;;4141791;28;20321;-64
2022/11/25 05:01:45;;;;;;;8.37;5.30;;;3.40;99.90;;;;;;4143212;28;20298;-64
2022/11/25 05:03:48;;;;;;;10.40;5.33;;;3.40;99.90;;;;;;4142576;28;20271;-63
2022/11/25 05:05:50;;;;;;;8.33;5.10;;;3.40;99.90;;;;;;4141072;28;20825;-66
2022/11/25 05:07:51;;;;;;;8.20;5.43;;;3.40;99.90;;;;;;4141323;28;20287;-65
2022/11/25 05:09:52;;;;;;;7.70;5.53;;;3.50;99.90;;;;;;4140201;28;20731;-64
2022/11/25 05:11:53;;;;;;;8.83;5.03;;;3.50;99.90;;;;;;4142183;28;20315;-65
2022/11/25 05:13:54;;;;;;;8.23;4.97;;;3.50;99.90;;;;;;4139316;28;20299;-64
2022/11/25 05:15:58;;;;;;;8.50;5.63;;;3.50;99.90;;;;;;4143592;28;20275;-63
2022/11/25 05:17:59;;;;;;;7.47;4.97;;;3.50;99.90;;;;;;4142754;28;20294;-70
2022/11/25 05:20:01;;;;;;;9.37;4.97;;;3.50;99.90;;;;;;4145138;28;20264;-64
2022/11/25 05:22:02;;;;;;;8.13;5.33;;;3.50;99.90;;;;;;4143989;28;20752;-64
2022/11/25 05:24:03;;;;;;;6.97;4.83;;;3.40;99.90;;;;;;4144444;28;20613;-63
2022/11/25 05:26:05;;;;;;;7.37;4.20;;;3.50;99.90;;;;;;4144558;28;20263;-69
2022/11/25 05:28:06;;;;;;;8.23;4.80;;;3.40;99.90;;;;;;4144603;28;20747;-64
2022/11/25 05:30:08;;;;;;;8.40;5.97;;;3.50;99.90;;;;;;4126676;28;20291;-64
2022/11/25 05:32:09;;;;;;;11.60;5.57;;;3.50;99.90;;;;;;4127106;28;20288;-62
2022/11/25 05:34:10;;;;;;;9.97;5.20;;;3.50;99.90;;;;;;4128915;28;20272;-65
2022/11/25 05:36:11;;;;;;;10.00;5.57;;;3.50;99.90;;;;;;4136705;28;20271;-63
2022/11/25 05:38:13;;;;;;;10.57;5.80;;;3.50;99.90;;;;;;4143943;28;20287;-63
2022/11/25 05:40:14;;;;;;;8.70;5.00;;;3.50;99.90;;;;;;4142190;28;20267;-63
2022/11/25 05:42:15;;;;;;;7.40;5.07;;;3.50;99.90;;;;;;4125294;28;20283;-63
2022/11/25 05:44:17;;;;;;;7.07;4.73;;;3.50;99.90;;;;;;4141539;28;20271;-63
2022/11/25 05:46:18;;;;;;;8.00;4.70;;;3.50;99.90;;;;;;4141845;28;20275;-63
2022/11/25 05:48:19;;;;;;;8.33;5.27;;;3.50;99.90;;;;;;4139783;28;20780;-63
2022/11/25 05:50:20;;;;;;;8.20;5.60;;;3.50;99.90;;;;;;4140542;28;20259;-63
2022/11/25 05:52:21;;;;;;;9.10;4.93;;;3.50;99.90;;;;;;4138490;28;20353;-62
2022/11/25 05:54:23;;;;;;;8.40;5.13;;;3.50;99.90;;;;;;4139998;28;20360;-64
2022/11/25 05:56:24;;;;;;;7.87;5.30;;;3.50;99.90;;;;;;4142129;28;20531;-64
2022/11/25 05:58:28;;;;;;;6.53;4.80;;;3.50;99.90;;;;;;4142569;28;20346;-63
2022/11/25 06:00:29;;;;;;;6.63;4.73;;;3.50;99.90;;;;;;4142049;28;20817;-64
2022/11/25 06:02:30;;;;;;;8.77;5.00;;;3.50;99.90;;;;;;4142278;28;20915;-64
2022/11/25 06:04:31;;;;;;;9.37;5.20;;;3.50;99.90;;;;;;4143179;28;20311;-63
2022/11/25 06:06:32;;;;;;;10.40;5.43;;;3.40;99.90;;;;;;4142812;28;20817;-64
2022/11/25 06:08:35;;;;;;;7.53;5.50;;;3.40;99.90;;;;;;4144405;28;20636;-62
2022/11/25 06:10:39;;;;;;;8.30;5.10;;;3.40;99.90;;;;;;4143521;28;20252;-62
2022/11/25 06:12:40;;;;;;;9.33;6.13;;;3.40;99.90;;;;;;4144953;28;20263;-61
2022/11/25 06:14:41;;;;;;;9.83;5.73;;;3.40;99.90;;;;;;4143947;28;20255;-61
2022/11/25 06:16:43;;;;;;;7.67;5.03;;;3.40;99.90;;;;;;4144158;28;20310;-61
2022/11/25 06:18:44;;;;;;;8.23;5.27;;;3.40;99.90;;;;;;4142699;28;20275;-62
2022/11/25 06:20:55;;;;;;;10.67;5.50;;;3.50;99.90;;;;;;4144932;28;20263;-63
2022/11/25 06:22:57;;;;;;;11.03;6.03;;;3.50;99.90;;;;;;4143485;28;20639;-62
2022/11/25 06:24:58;;;;;;;8.80;5.77;;;3.50;99.90;;;;;;4144664;28;20830;-63
2022/11/25 06:26:59;;;;;;;9.33;5.97;;;3.50;99.90;;;;;;4143698;28;20674;-62
2022/11/25 06:29:01;;;;;;;9.27;6.20;;;3.40;99.90;;;;;;4144634;28;20283;-62
2022/11/25 06:31:11;;;;;;;13.50;6.30;;;3.50;99.90;;;;;;4143636;28;20263;-61
2022/11/25 06:33:12;;;;;;;12.27;6.13;;;3.40;99.90;;;;;;4144610;28;20263;-61
2022/11/25 06:35:14;;;;;;;9.80;6.43;;;3.50;99.90;;;;;;4143015;28;20042;-61
2022/11/25 06:37:15;;;;;;;14.87;8.67;;;3.50;99.90;;;;;;4143114;28;20310;-62
2022/11/25 06:39:16;;;;;;;15.63;9.00;;;3.50;99.90;;;;;;4143576;28;20655;-63
2022/11/25 06:41:17;;;;;;;12.13;7.57;;;3.50;99.90;;;;;;4143476;28;20667;-63
2022/11/25 06:43:19;;;;;;;10.57;7.23;;;3.50;99.90;;;;;;4143447;28;20644;-63
2022/11/25 06:45:20;;;;;;;12.33;5.57;;;3.50;99.90;;;;;;4143176;28;20271;-63
2022/11/25 06:47:21;;;;;;;10.43;6.47;;;3.50;99.90;;;;;;4143706;28;20291;-62
2022/11/25 06:49:22;;;;;;;8.80;5.27;;;3.50;99.90;;;;;;4139306;28;20267;-65
2022/11/25 06:51:23;;;;;;;10.30;5.63;;;3.50;99.90;;;;;;4145085;28;20272;-63
2022/11/25 06:53:25;;;;;;;8.57;5.10;;;3.60;99.90;;;;;;4144980;28;20326;-65
2022/11/25 06:55:26;;;;;;;10.50;5.80;;;3.60;99.90;;;;;;4147056;28;20268;-64
2022/11/25 06:57:28;;;;;;;7.80;5.03;;;3.50;99.90;;;;;;4145361;28;20345;-64
2022/11/25 06:59:29;;;;;;;7.97;4.80;;;3.50;99.90;;;;;;4146100;28;20310;-63
2022/11/25 07:01:30;;;;;;;7.20;4.60;;;3.50;99.90;;;;;;4145012;28;20652;-65
2022/11/25 07:03:31;;;;;;;9.37;5.17;;;3.50;99.90;;;;;;4129872;28;20296;-64
2022/11/25 07:05:32;;;;;;;9.27;5.20;;;3.50;99.90;;;;;;4146150;28;20774;-63
2022/11/25 07:07:33;;;;;;;10.17;5.00;;;3.50;99.90;;;;;;4145482;28;20283;-64
2022/11/25 07:09:35;;;;;;;9.40;5.83;;;3.50;99.90;;;;;;4146888;28;20333;-65
2022/11/25 07:11:39;;;;;;;7.00;5.00;;;3.60;99.90;;;;;;4145143;28;20329;-64
2022/11/25 07:13:40;;;;;;;10.87;5.40;;;3.50;99.90;;;;;;4145762;28;20259;-66
2022/11/25 07:15:41;;;;;;;11.77;5.67;;;3.50;99.90;;;;;;4144306;28;20260;-63
2022/11/25 07:17:42;;;;;;;7.83;5.00;;;3.50;99.90;;;;;;4146359;28;20343;-64
2022/11/25 07:19:44;;;;;;;10.13;6.47;;;3.50;99.90;;;;;;4144437;28;20339;-64
2022/11/25 07:21:46;;;;;;;18.23;9.80;;;3.50;99.90;;;;;;4145926;28;20318;-68
2022/11/25 07:23:48;;;;;;;17.37;9.23;;;3.50;99.90;;;;;;4145722;28;20275;-63
2022/11/25 07:25:49;;;;;;;20.83;10.43;;;3.50;99.90;;;;;;4146292;28;20671;-63
2022/11/25 07:27:50;;;;;;;14.30;8.03;;;3.60;99.90;;;;;;4145523;28;20283;-65
2022/11/25 07:29:51;;;;;;;12.93;7.03;;;3.50;99.90;;;;;;4146537;28;20280;-63
2022/11/25 07:31:52;;;;;;;13.70;8.57;;;3.60;99.90;;;;;;4145484;28;20285;-64
2022/11/25 07:33:58;;;;;;;12.97;6.67;;;3.60;99.90;;;;;;4146116;28;20279;-65
2022/11/25 07:36:05;;;;;;;13.87;8.07;;;3.70;99.90;;;;;;4145594;28;20778;-63
2022/11/25 07:38:07;;;;;;;12.07;7.60;;;3.70;99.90;;;;;;4144428;28;20275;-64
2022/11/25 07:40:08;;;;;;;14.33;7.87;;;3.70;99.90;;;;;;4144927;28;20752;-63
2022/11/25 07:42:10;;;;;;;24.27;10.70;;;3.80;99.90;;;;;;4145693;28;20279;-63
2022/11/25 07:44:13;;;;;;;17.33;9.93;;;3.80;99.90;;;;;;4145972;28;20279;-64
2022/11/25 07:46:26;;;;;;;19.13;10.50;;;3.80;99.90;;;;;;4145384;28;20255;-63
2022/11/25 07:48:27;;;;;;;15.97;9.20;;;3.80;99.90;;;;;;4145042;28;20280;-62
2022/11/25 07:50:28;;;;;;;16.63;8.80;;;3.80;99.90;;;;;;4145010;28;20275;-63
2022/11/25 07:52:30;;;;;;;17.90;9.10;;;3.80;99.90;;;;;;4146483;28;20272;-65
2022/11/25 07:54:32;;;;;;;14.87;8.43;;;3.90;99.90;;;;;;4145160;28;20283;-64
2022/11/25 07:56:35;;;;;;;14.13;8.67;;;4.10;99.90;;;;;;4146700;28;20275;-63
2022/11/25 07:58:36;;;;;;;21.07;9.43;;;4.40;99.90;;;;;;4145147;28;20273;-63
2022/11/25 08:00:37;;;;;;;14.00;8.77;;;4.70;99.90;;;;;;4145992;28;20758;-66
2022/11/25 08:02:38;;;;;;;13.93;8.00;;;5.10;99.90;;;;;;4143405;28;20327;-64
2022/11/25 08:04:39;;;;;;;16.83;10.20;;;5.20;99.90;;;;;;4145910;28;20271;-64
2022/11/25 08:06:43;;;;;;;20.33;11.77;;;5.20;99.90;;;;;;4144575;28;20276;-64
2022/11/25 08:08:44;;;;;;;18.23;10.27;;;5.20;99.90;;;;;;4145760;28;20113;-62
2022/11/25 08:10:46;;;;;;;13.43;8.40;;;5.30;99.90;;;;;;4143544;28;20446;-64
2022/11/25 08:12:47;;;;;;;13.07;7.97;;;5.40;99.90;;;;;;4143948;28;20045;-63
2022/11/25 08:14:48;;;;;;;12.00;7.17;;;5.50;99.90;;;;;;4145707;28;20077;-66
2022/11/25 08:16:49;;;;;;;14.80;8.43;;;5.50;99.90;;;;;;4145483;28;20085;-64
2022/11/25 08:18:50;;;;;;;17.27;8.77;;;5.60;99.90;;;;;;4144057;28;20061;-64
2022/11/25 08:20:57;;;;;;;16.70;9.77;;;5.50;99.90;;;;;;4144114;28;20039;-64
2022/11/25 08:22:58;;;;;;;11.60;7.83;;;5.50;99.90;;;;;;4145436;28;20046;-64
2022/11/25 08:24:59;;;;;;;9.30;6.37;;;5.60;99.90;;;;;;4144334;28;20037;-64
2022/11/25 08:27:00;;;;;;;12.87;6.30;;;5.60;99.90;;;;;;4145613;28;20046;-64
2022/11/25 08:29:04;;;;;;;10.67;5.83;;;5.70;99.90;;;;;;4144859;28;20026;-64
2022/11/25 08:31:10;;;;;;;13.30;6.07;;;5.80;99.90;;;;;;4145895;28;20363;-64
2022/11/25 08:33:11;;;;;;;9.00;5.60;;;5.80;99.90;;;;;;4126809;28;20081;-63
2022/11/25 08:35:12;;;;;;;7.50;5.33;;;5.80;99.90;;;;;;4145052;28;20053;-64
2022/11/25 08:37:13;;;;;;;7.97;5.23;;;5.90;99.90;;;;;;4144504;28;20506;-64
2022/11/25 08:39:15;;;;;;;7.37;5.27;;;6.10;99.90;;;;;;4146119;28;20037;-63
2022/11/25 08:41:20;;;;;;;8.27;5.20;;;6.00;99.90;;;;;;4144954;28;20034;-64
2022/11/25 08:43:21;;;;;;;13.03;5.07;;;5.90;99.90;;;;;;4143150;28;20054;-63
2022/11/25 08:45:23;;;;;;;8.30;5.13;;;5.80;99.90;;;;;;4144428;28;20061;-64
2022/11/25 08:47:24;;;;;;;7.70;3.20;;;5.80;99.90;;;;;;4145192;28;20034;-65
2022/11/25 08:49:25;;;;;;;4.00;2.33;;;5.90;99.90;;;;;;4144481;28;20050;-65
2022/11/25 08:51:29;;;;;;;5.60;2.87;;;6.00;99.90;;;;;;4144515;28;20037;-64
2022/11/25 08:53:30;;;;;;;5.43;3.10;;;5.90;99.90;;;;;;4143889;28;20057;-65
2022/11/25 08:55:31;;;;;;;5.87;2.57;;;6.00;99.90;;;;;;4144866;28;20080;-65
2022/11/25 08:57:33;;;;;;;5.77;2.70;;;6.00;99.90;;;;;;4144887;28;20473;-65
2022/11/25 08:59:34;;;;;;;4.73;2.90;;;6.10;99.90;;;;;;4143767;28;20038;-64
2022/11/25 09:01:35;;;;;;;4.83;2.83;;;6.20;99.90;;;;;;4144923;28;20092;-65
2022/11/25 09:03:43;;;;;;;5.07;2.83;;;6.30;99.90;;;;;;4143348;28;20054;-65
2022/11/25 09:05:44;;;;;;;6.60;3.67;;;6.40;99.90;;;;;;4144768;28;20096;-64
2022/11/25 09:07:45;;;;;;;7.13;3.40;;;6.40;99.90;;;;;;4144496;28;20482;-64
2022/11/25 09:09:46;;;;;;;10.63;3.97;;;6.40;99.90;;;;;;4144739;28;20092;-64
2022/11/25 09:11:48;;;;;;;5.20;2.67;;;6.30;99.90;;;;;;4144244;28;20034;-64
2022/11/25 09:13:49;;;;;;;4.90;3.10;;;6.20;99.90;;;;;;4145100;28;20080;-63
2022/11/25 09:15:50;;;;;;;6.30;3.20;;;6.10;99.90;;;;;;4143107;28;20038;-63
2022/11/25 09:18:07;;;;;;;4.87;3.23;;;6.10;99.90;;;;;;4127010;28;20042;-64
2022/11/25 09:20:08;;;;;;;4.73;2.80;;;6.00;99.90;;;;;;4143261;28;20556;-65
2022/11/25 09:22:09;;;;;;;5.80;3.30;;;5.90;99.90;;;;;;4144393;28;20046;-64
2022/11/25 09:24:11;;;;;;;5.17;3.23;;;5.80;99.90;;;;;;4144038;28;20084;-64
2022/11/25 09:26:30;;;;;;;4.70;2.83;;;5.70;99.90;;;;;;4143969;28;20086;-64
2022/11/25 09:28:32;;;;;;;5.93;3.20;;;5.60;99.90;;;;;;4144222;28;20471;-64
2022/11/25 09:30:33;;;;;;;6.03;3.20;;;5.40;99.90;;;;;;4143413;28;20038;-63
2022/11/25 09:32:34;;;;;;;6.27;3.00;;;5.40;99.90;;;;;;4138640;28;20104;-63
2022/11/25 09:34:35;;;;;;;4.63;2.80;;;5.40;99.90;;;;;;4142300;28;20111;-63
2022/11/25 09:36:37;;;;;;;5.10;3.30;;;5.30;99.90;;;;;;4142730;28;20453;-65
2022/11/25 09:38:38;;;;;;;6.10;3.07;;;5.30;99.90;;;;;;4144020;28;20026;-66
2022/11/25 09:40:42;;;;;;;5.87;2.90;;;5.30;99.90;;;;;;4144600;28;20034;-64
2022/11/25 09:48:20;;;;;;;7.87;3.63;;;5.20;99.90;;;;;;4144356;28;20121;-65
2022/11/25 09:50:43;;;;;;;5.27;3.33;;;5.20;99.90;;;;;;4140937;28;20104;-63
2022/11/25 09:53:08;;;;;;;7.53;3.47;;;5.20;99.90;;;;;;4144229;28;20112;-64
2022/11/25 09:55:19;;;;;;;6.43;3.77;;;5.10;99.90;;;;;;4126023;28;20101;-63
2022/11/25 09:57:28;;;;;;;4.80;3.25;;;5.10;99.90;;;;;;4144672;28;20533;-63
2022/11/25 09:59:49;;;;;;;6.87;3.87;;;5.10;99.90;;;;;;4142904;28;20107;-66
2022/11/25 10:01:57;;;;;;;;;;;5.10;99.90;;;;;;4141120;28;20080;-64
2022/11/25 10:04:10;;;;;;;5.37;3.10;;;5.10;99.90;;;;;;4143179;28;19921;-64
2022/11/25 10:06:24;;;;;;;4.57;3.33;;;5.00;99.90;;;;;;4144380;28;20494;-63
2022/11/25 10:08:30;;;;;;;5.03;3.10;;;5.00;99.90;;;;;;4142878;28;20279;-63
2022/11/25 10:10:46;;;;;;;9.57;3.80;;;5.00;99.90;;;;;;4145176;28;20279;-64
2022/11/25 10:12:49;;;;;;;6.10;3.57;;;5.00;99.90;;;;;;4144177;28;20092;-63
2022/11/25 10:15:00;;;;;;;8.17;4.23;;;5.00;99.90;;;;;;4127005;28;20284;-64
2022/11/25 10:17:16;;;;;;;7.40;4.23;;;5.00;99.90;;;;;;4143617;28;20486;-64
2022/11/25 10:20:05;;;;;;;7.20;4.03;;;5.00;99.90;;;;;;4128945;28;20268;-64
2022/11/25 10:22:40;;;;;;;5.20;3.43;;;5.10;99.90;;;;;;4114878;28;20288;-65
2022/11/25 10:24:41;;;;;;;7.93;4.20;;;5.10;99.90;;;;;;4128865;28;20284;-64
2022/11/25 10:26:53;;;;;;;5.77;3.80;;;5.10;99.90;;;;;;4145868;28;20479;-64
2022/11/25 10:29:27;;;;;;;8.90;3.83;;;5.10;99.90;;;;;;4146367;28;20766;-64
2022/11/25 10:31:35;;;;;;;6.63;4.07;;;5.00;99.90;;;;;;4129359;28;20514;-64
2022/11/25 10:33:44;;;;;;;6.73;4.03;;;5.10;99.90;;;;;;4145535;28;20033;-64
2022/11/25 10:35:51;;;;;;;10.00;4.30;;;5.10;99.90;;;;;;4146860;28;20038;-64
2022/11/25 10:37:55;;;;;;;7.27;3.63;;;5.10;99.90;;;;;;4146550;28;20042;-64
2022/11/25 10:39:56;;;;;;;5.67;3.30;;;5.00;99.90;;;;;;4146560;28;20474;-65
2022/11/25 10:42:03;;;;;;;6.37;3.83;;;4.90;99.90;;;;;;4135457;28;20030;-67
2022/11/25 10:44:14;;;;;;;8.93;3.80;;;4.90;99.90;;;;;;4130876;28;20050;-66
2022/11/25 10:46:37;;;;;;;5.63;3.70;;;4.90;99.90;;;;;;4130228;28;20081;-67
2022/11/25 10:49:00;;;;;;;6.77;3.90;;;4.80;99.90;;;;;;4129239;28;20518;-64
2022/11/25 10:51:27;;;;;;;7.70;4.50;;;4.80;99.90;;;;;;4145256;28;20041;-64
2022/11/25 10:53:29;;;;;;;6.53;4.50;;;4.70;99.90;;;;;;4123513;28;20046;-63
2022/11/25 10:55:32;;;;;;;8.97;5.37;;;4.70;99.90;;;;;;4131349;28;20272;-67